Chiricana — 3EKU3 — position and weather

sailwx.info

Track history (hours):
 
Tides and Currents Weather Stations Pressure Air Temp Water Temp Dewpoint Dewpoint Depression Visibility Wind Speed Wind Dir Waves Ship Positions

Chiricana

Last reported at 2017-Mar-25 23:00 UTC. Time now 2017-Mar-26 13:05 UTC.
Position N 48°24' W 177°18'.

Length 300 m; draft 11.1 m.

Type: Ship (hazmat cat A). MMSI: 372829000.

Wind from 230 at 14 knots

Barometer 985.0 mb
Air temperature 8.0 ° C
Visibility: greater than 5.4 NM
Water temperature 4.0 ° C

Date/timePositionNaut miles runAvg speedWind from/ knotsBaromVisibWave heightAir tempDewpointWater temp
2017-Mar-25 23:00N 48°24' W 177°18'14235.5 230 / 14985.0 5.4 8.0 4.0
2017-Mar-25 19:00N 48°00' E 179°12'23921.7 250 / 18983.0 5.4 7.0 4.0
2017-Mar-25 08:00N 46°18' E 173°54'73 9.1 270 / 26974.0 5.4 4.0 4.0
2017-Mar-25 00:00N 46°00' E 172°12'8020.1 340 / 26975.0 5.4 5.0 4.0
2017-Mar-24 20:00N 45°48' E 170°18'6516.4 320 / 25974.0 5.4 3.0 4.0
2017-Mar-24 16:00N 45°30' E 168°48'116116.4 340 / 32975.3 0.5 3.0 3.0
2017-Mar-24 15:00N 45°06' E 166°06'22512.5 340 / 34979.0 5.4 3.0 4.0
2017-Mar-23 21:00N 43°18' E 161°30'21353.1 360 / 32993.010.8 1.5 2.0
2017-Mar-23 17:00N 44°00' E 156°42'   360 / 30996.0 2.2 3.0 1.0
2017-Mar-18 11:33N 31°06' E 122°26'1211.9
2017-Mar-18 10:33N 31°09' E 122°13'1414.2
2017-Mar-18 09:33N 31°15' E 121°58'1312.8
2017-Mar-18 08:31N 31°19' E 121°43'8 8.2
2017-Mar-18 07:33N 31°23' E 121°35'0 0.0
2017-Mar-18 06:28N 31°23' E 121°35'0 0.0
2017-Mar-18 05:31N 31°23' E 121°35'0 0.0
2017-Mar-18 04:31N 31°23' E 121°35'0 0.0
2017-Mar-18 03:31N 31°23' E 121°35'0 0.1
2017-Mar-18 02:31N 31°23' E 121°35'0 0.1
2017-Mar-18 01:31N 31°23' E 121°35'0 0.0
2017-Mar-18 00:28N 31°23' E 121°35'0 0.0
2017-Mar-17 23:28N 31°23' E 121°35'0 0.0
2017-Mar-17 22:31N 31°23' E 121°35'0 0.0
2017-Mar-17 21:31N 31°23' E 121°35'0 0.0
2017-Mar-17 20:33N 31°23' E 121°35'1 0.8
2017-Mar-17 19:33N 31°23' E 121°34'3 2.9
2017-Mar-17 18:33N 31°22' E 121°37'1010.3
2017-Mar-17 17:33N 31°18' E 121°48'1111.3
2017-Mar-17 16:33N 31°15' E 122°01'1211.7
2017-Mar-17 15:33N 31°09' E 122°13'1211.9
2017-Mar-17 14:33N 31°06' E 122°26'9 9.2
2017-Mar-17 13:33N 31°07' E 122°37'10 9.5
2017-Mar-17 12:32N 31°07' E 122°48'1111.5
2017-Mar-17 11:33N 30°59' E 122°57'1512.8
2017-Mar-17 10:23N 30°46' E 123°06'50515.4
2017-Mar-16 01:33N 22°49' E 120°01'1616.6
2017-Mar-16 00:33N 22°35' E 120°10'8 8.1
2017-Mar-15 23:33N 22°33' E 120°19'  
Track history (hours):
 
Tides and Currents Weather Stations Pressure Air Temp Water Temp Dewpoint Dewpoint Depression Visibility Wind Speed Wind Dir Waves Ship Positions

Chiricana

Last reported at 2017-Mar-25 23:00 UTC. Time now 2017-Mar-26 13:05 UTC.
Position N 48°24' W 177°18'.

Length 300 m; draft 11.1 m.

Type: Ship (hazmat cat A). MMSI: 372829000.

Wind from 230 at 14 knots

Barometer 985.0 mb
Air temperature 8.0 ° C
Visibility: greater than 5.4 NM
Water temperature 4.0 ° C

Date/timePositionNaut miles runAvg speedWind from/ knotsBaromVisibWave heightAir tempDewpointWater temp
2017-Mar-25 23:00N 48°24' W 177°18'14235.5 230 / 14985.0 5.4 8.0 4.0
2017-Mar-25 19:00N 48°00' E 179°12'23921.7 250 / 18983.0 5.4 7.0 4.0
2017-Mar-25 08:00N 46°18' E 173°54'73 9.1 270 / 26974.0 5.4 4.0 4.0
2017-Mar-25 00:00N 46°00' E 172°12'8020.1 340 / 26975.0 5.4 5.0 4.0
2017-Mar-24 20:00N 45°48' E 170°18'6516.4 320 / 25974.0 5.4 3.0 4.0
2017-Mar-24 16:00N 45°30' E 168°48'116116.4 340 / 32975.3 0.5 3.0 3.0
2017-Mar-24 15:00N 45°06' E 166°06'22512.5 340 / 34979.0 5.4 3.0 4.0
2017-Mar-23 21:00N 43°18' E 161°30'21353.1 360 / 32993.010.8 1.5 2.0
2017-Mar-23 17:00N 44°00' E 156°42'   360 / 30996.0 2.2 3.0 1.0
2017-Mar-18 11:33N 31°06' E 122°26'1211.9
2017-Mar-18 10:33N 31°09' E 122°13'1414.2
2017-Mar-18 09:33N 31°15' E 121°58'1312.8
2017-Mar-18 08:31N 31°19' E 121°43'8 8.2
2017-Mar-18 07:33N 31°23' E 121°35'0 0.0
2017-Mar-18 06:28N 31°23' E 121°35'0 0.0
2017-Mar-18 05:31N 31°23' E 121°35'0 0.0
2017-Mar-18 04:31N 31°23' E 121°35'0 0.0
2017-Mar-18 03:31N 31°23' E 121°35'0 0.1
2017-Mar-18 02:31N 31°23' E 121°35'0 0.1
2017-Mar-18 01:31N 31°23' E 121°35'0 0.0
2017-Mar-18 00:28N 31°23' E 121°35'0 0.0
2017-Mar-17 23:28N 31°23' E 121°35'0 0.0
2017-Mar-17 22:31N 31°23' E 121°35'0 0.0
2017-Mar-17 21:31N 31°23' E 121°35'0 0.0
2017-Mar-17 20:33N 31°23' E 121°35'1 0.8
2017-Mar-17 19:33N 31°23' E 121°34'3 2.9
2017-Mar-17 18:33N 31°22' E 121°37'1010.3
2017-Mar-17 17:33N 31°18' E 121°48'1111.3
2017-Mar-17 16:33N 31°15' E 122°01'1211.7
2017-Mar-17 15:33N 31°09' E 122°13'1211.9
2017-Mar-17 14:33N 31°06' E 122°26'9 9.2
2017-Mar-17 13:33N 31°07' E 122°37'10 9.5
2017-Mar-17 12:32N 31°07' E 122°48'1111.5
2017-Mar-17 11:33N 30°59' E 122°57'1512.8
2017-Mar-17 10:23N 30°46' E 123°06'50515.4
2017-Mar-16 01:33N 22°49' E 120°01'1616.6
2017-Mar-16 00:33N 22°35' E 120°10'8 8.1
2017-Mar-15 23:33N 22°33' E 120°19'  

Dump ship's entire track history